sensor_id;sensor_type;location;lat;lon;timestamp;P1;durP1;ratioP1;P2;durP2;ratioP2
55312;SDS011;46892;45.668;11.756;2022-08-30T00:00:33;10.95;;;7.82;;
55312;SDS011;46892;45.668;11.756;2022-08-30T00:03:17;9.02;;;7.20;;
55312;SDS011;46892;45.668;11.756;2022-08-30T00:05:43;13.40;;;7.55;;
55312;SDS011;46892;45.668;11.756;2022-08-30T00:08:09;7.68;;;6.25;;
55312;SDS011;46892;45.668;11.756;2022-08-30T00:10:35;7.55;;;6.75;;
55312;SDS011;46892;45.668;11.756;2022-08-30T00:13:02;7.55;;;6.53;;
55312;SDS011;46892;45.668;11.756;2022-08-30T00:15:29;8.75;;;6.75;;
55312;SDS011;46892;45.668;11.756;2022-08-30T00:17:55;10.30;;;7.25;;
55312;SDS011;46892;45.668;11.756;2022-08-30T00:20:22;8.60;;;7.25;;
55312;SDS011;46892;45.668;11.756;2022-08-30T00:22:50;13.32;;;8.70;;
55312;SDS011;46892;45.668;11.756;2022-08-30T00:25:16;9.38;;;7.72;;
55312;SDS011;46892;45.668;11.756;2022-08-30T00:27:43;9.65;;;7.97;;
55312;SDS011;46892;45.668;11.756;2022-08-30T00:30:10;9.00;;;8.05;;
55312;SDS011;46892;45.668;11.756;2022-08-30T00:32:37;11.65;;;8.75;;
55312;SDS011;46892;45.668;11.756;2022-08-30T00:35:05;11.88;;;9.55;;
55312;SDS011;46892;45.668;11.756;2022-08-30T00:37:32;11.25;;;9.02;;
55312;SDS011;46892;45.668;11.756;2022-08-30T00:39:58;14.45;;;10.20;;
55312;SDS011;46892;45.668;11.756;2022-08-30T00:42:24;11.47;;;9.93;;
55312;SDS011;46892;45.668;11.756;2022-08-30T00:44:50;11.70;;;9.47;;
55312;SDS011;46892;45.668;11.756;2022-08-30T00:47:16;11.38;;;8.90;;
55312;SDS011;46892;45.668;11.756;2022-08-30T00:49:44;13.50;;;10.50;;
55312;SDS011;46892;45.668;11.756;2022-08-30T00:52:13;13.87;;;11.10;;
55312;SDS011;46892;45.668;11.756;2022-08-30T00:54:41;13.13;;;10.50;;
55312;SDS011;46892;45.668;11.756;2022-08-30T00:57:10;14.20;;;11.63;;
55312;SDS011;46892;45.668;11.756;2022-08-30T00:59:37;12.32;;;11.02;;
55312;SDS011;46892;45.668;11.756;2022-08-30T01:02:04;12.10;;;9.77;;
55312;SDS011;46892;45.668;11.756;2022-08-30T01:04:30;10.73;;;9.43;;
55312;SDS011;46892;45.668;11.756;2022-08-30T01:06:57;13.10;;;9.60;;
55312;SDS011;46892;45.668;11.756;2022-08-30T01:09:24;11.47;;;9.47;;
55312;SDS011;46892;45.668;11.756;2022-08-30T01:11:50;8.98;;;8.07;;
55312;SDS011;46892;45.668;11.756;2022-08-30T01:14:17;11.95;;;9.43;;
55312;SDS011;46892;45.668;11.756;2022-08-30T01:16:45;10.05;;;8.23;;
55312;SDS011;46892;45.668;11.756;2022-08-30T01:21:50;13.68;;;8.57;;
55312;SDS011;46892;45.668;11.756;2022-08-30T01:24:21;12.40;;;9.37;;
55312;SDS011;46892;45.668;11.756;2022-08-30T01:26:46;11.38;;;9.05;;
55312;SDS011;46892;45.668;11.756;2022-08-30T01:29:13;13.88;;;10.23;;
55312;SDS011;46892;45.668;11.756;2022-08-30T01:31:43;12.55;;;9.40;;
55312;SDS011;46892;45.668;11.756;2022-08-30T01:34:10;13.07;;;10.05;;
55312;SDS011;46892;45.668;11.756;2022-08-30T01:36:36;11.40;;;10.20;;
55312;SDS011;46892;45.668;11.756;2022-08-30T01:39:03;15.35;;;9.75;;
55312;SDS011;46892;45.668;11.756;2022-08-30T01:41:31;15.80;;;10.65;;
55312;SDS011;46892;45.668;11.756;2022-08-30T01:43:59;12.35;;;9.48;;
55312;SDS011;46892;45.668;11.756;2022-08-30T01:46:29;10.15;;;8.70;;
55312;SDS011;46892;45.668;11.756;2022-08-30T01:49:00;9.57;;;8.00;;
55312;SDS011;46892;45.668;11.756;2022-08-30T01:51:28;12.80;;;9.43;;
55312;SDS011;46892;45.668;11.756;2022-08-30T01:53:54;10.85;;;9.18;;
55312;SDS011;46892;45.668;11.756;2022-08-30T01:56:21;10.73;;;8.88;;
55312;SDS011;46892;45.668;11.756;2022-08-30T01:58:48;13.05;;;8.90;;
55312;SDS011;46892;45.668;11.756;2022-08-30T02:01:15;14.50;;;9.50;;
55312;SDS011;46892;45.668;11.756;2022-08-30T02:03:44;11.55;;;9.77;;
55312;SDS011;46892;45.668;11.756;2022-08-30T02:06:11;12.77;;;9.48;;
55312;SDS011;46892;45.668;11.756;2022-08-30T02:08:39;11.18;;;9.40;;
55312;SDS011;46892;45.668;11.756;2022-08-30T02:11:05;12.35;;;9.88;;
55312;SDS011;46892;45.668;11.756;2022-08-30T02:13:31;11.73;;;9.88;;
55312;SDS011;46892;45.668;11.756;2022-08-30T02:15:59;10.50;;;9.02;;
55312;SDS011;46892;45.668;11.756;2022-08-30T02:18:25;11.10;;;7.97;;
55312;SDS011;46892;45.668;11.756;2022-08-30T02:20:51;14.35;;;7.80;;
55312;SDS011;46892;45.668;11.756;2022-08-30T02:23:17;10.13;;;7.20;;
55312;SDS011;46892;45.668;11.756;2022-08-30T02:25:43;10.40;;;7.37;;
55312;SDS011;46892;45.668;11.756;2022-08-30T02:28:09;9.97;;;7.30;;
55312;SDS011;46892;45.668;11.756;2022-08-30T02:30:35;9.53;;;6.73;;
55312;SDS011;46892;45.668;11.756;2022-08-30T02:33:02;10.33;;;5.50;;
55312;SDS011;46892;45.668;11.756;2022-08-30T02:35:28;9.23;;;6.03;;
55312;SDS011;46892;45.668;11.756;2022-08-30T02:37:53;6.60;;;4.67;;
55312;SDS011;46892;45.668;11.756;2022-08-30T02:40:19;7.97;;;5.33;;
55312;SDS011;46892;45.668;11.756;2022-08-30T02:42:46;8.23;;;5.33;;
55312;SDS011;46892;45.668;11.756;2022-08-30T02:45:13;8.77;;;4.90;;
55312;SDS011;46892;45.668;11.756;2022-08-30T02:47:39;6.80;;;4.90;;
55312;SDS011;46892;45.668;11.756;2022-08-30T02:50:06;6.80;;;4.53;;
55312;SDS011;46892;45.668;11.756;2022-08-30T02:52:34;6.27;;;4.40;;
55312;SDS011;46892;45.668;11.756;2022-08-30T02:55:03;5.83;;;3.77;;
55312;SDS011;46892;45.668;11.756;2022-08-30T02:57:30;5.97;;;4.00;;
55312;SDS011;46892;45.668;11.756;2022-08-30T02:59:56;6.53;;;4.63;;
55312;SDS011;46892;45.668;11.756;2022-08-30T03:02:22;10.02;;;4.65;;
55312;SDS011;46892;45.668;11.756;2022-08-30T03:04:48;5.90;;;4.22;;
55312;SDS011;46892;45.668;11.756;2022-08-30T03:07:14;5.97;;;4.63;;
55312;SDS011;46892;45.668;11.756;2022-08-30T03:09:41;9.25;;;4.93;;
55312;SDS011;46892;45.668;11.756;2022-08-30T03:12:07;9.20;;;5.60;;
55312;SDS011;46892;45.668;11.756;2022-08-30T03:14:34;6.55;;;5.32;;
55312;SDS011;46892;45.668;11.756;2022-08-30T03:17:06;7.60;;;5.70;;
55312;SDS011;46892;45.668;11.756;2022-08-30T03:19:33;8.95;;;5.95;;
55312;SDS011;46892;45.668;11.756;2022-08-30T03:22:00;7.57;;;5.70;;
55312;SDS011;46892;45.668;11.756;2022-08-30T03:24:27;8.20;;;5.50;;
55312;SDS011;46892;45.668;11.756;2022-08-30T03:26:53;7.05;;;5.60;;
55312;SDS011;46892;45.668;11.756;2022-08-30T03:29:19;7.77;;;5.87;;
55312;SDS011;46892;45.668;11.756;2022-08-30T03:31:45;8.32;;;6.40;;
55312;SDS011;46892;45.668;11.756;2022-08-30T03:34:11;7.77;;;5.43;;
55312;SDS011;46892;45.668;11.756;2022-08-30T03:36:37;9.20;;;5.78;;
55312;SDS011;46892;45.668;11.756;2022-08-30T03:39:04;7.70;;;5.80;;
55312;SDS011;46892;45.668;11.756;2022-08-30T03:41:31;8.63;;;6.20;;
55312;SDS011;46892;45.668;11.756;2022-08-30T03:43:58;8.67;;;6.77;;
55312;SDS011;46892;45.668;11.756;2022-08-30T03:46:24;9.73;;;6.88;;
55312;SDS011;46892;45.668;11.756;2022-08-30T03:48:50;9.40;;;6.73;;
55312;SDS011;46892;45.668;11.756;2022-08-30T03:51:17;8.23;;;6.87;;
55312;SDS011;46892;45.668;11.756;2022-08-30T03:53:43;8.83;;;6.47;;
55312;SDS011;46892;45.668;11.756;2022-08-30T03:56:08;9.23;;;6.23;;
55312;SDS011;46892;45.668;11.756;2022-08-30T03:58:34;8.30;;;5.85;;
55312;SDS011;46892;45.668;11.756;2022-08-30T04:01:01;8.57;;;6.43;;
55312;SDS011;46892;45.668;11.756;2022-08-30T04:03:26;10.53;;;7.87;;
55312;SDS011;46892;45.668;11.756;2022-08-30T04:05:52;11.57;;;7.77;;
55312;SDS011;46892;45.668;11.756;2022-08-30T04:08:20;13.87;;;7.77;;
55312;SDS011;46892;45.668;11.756;2022-08-30T04:24:37;11.80;;;8.30;;
55312;SDS011;46892;45.668;11.756;2022-08-30T04:27:05;12.75;;;8.88;;
55312;SDS011;46892;45.668;11.756;2022-08-30T04:29:31;13.07;;;8.70;;
55312;SDS011;46892;45.668;11.756;2022-08-30T04:31:58;10.02;;;8.65;;
55312;SDS011;46892;45.668;11.756;2022-08-30T04:34:23;10.27;;;8.77;;
55312;SDS011;46892;45.668;11.756;2022-08-30T04:36:49;11.57;;;9.10;;
55312;SDS011;46892;45.668;11.756;2022-08-30T04:39:16;12.93;;;8.77;;
55312;SDS011;46892;45.668;11.756;2022-08-30T04:41:42;11.77;;;8.83;;
55312;SDS011;46892;45.668;11.756;2022-08-30T04:44:08;12.87;;;8.97;;
55312;SDS011;46892;45.668;11.756;2022-08-30T04:46:34;13.00;;;9.27;;
55312;SDS011;46892;45.668;11.756;2022-08-30T04:49:00;11.77;;;8.87;;
55312;SDS011;46892;45.668;11.756;2022-08-30T04:51:26;12.10;;;8.93;;
55312;SDS011;46892;45.668;11.756;2022-08-30T04:53:52;9.30;;;6.83;;
55312;SDS011;46892;45.668;11.756;2022-08-30T04:56:19;10.50;;;6.43;;
55312;SDS011;46892;45.668;11.756;2022-08-30T04:58:47;6.10;;;5.13;;
55312;SDS011;46892;45.668;11.756;2022-08-30T05:01:15;12.03;;;4.67;;
55312;SDS011;46892;45.668;11.756;2022-08-30T05:03:44;7.30;;;4.50;;
55312;SDS011;46892;45.668;11.756;2022-08-30T05:06:10;8.30;;;4.63;;
55312;SDS011;46892;45.668;11.756;2022-08-30T05:08:36;6.00;;;3.90;;
55312;SDS011;46892;45.668;11.756;2022-08-30T05:11:02;13.33;;;4.40;;
55312;SDS011;46892;45.668;11.756;2022-08-30T05:13:30;4.60;;;3.57;;
55312;SDS011;46892;45.668;11.756;2022-08-30T05:15:56;8.87;;;3.60;;
55312;SDS011;46892;45.668;11.756;2022-08-30T05:18:22;7.17;;;3.67;;
55312;SDS011;46892;45.668;11.756;2022-08-30T05:20:47;5.57;;;3.50;;
55312;SDS011;46892;45.668;11.756;2022-08-30T05:23:13;7.97;;;5.47;;
55312;SDS011;46892;45.668;11.756;2022-08-30T05:25:39;6.90;;;5.43;;
55312;SDS011;46892;45.668;11.756;2022-08-30T05:28:06;9.00;;;7.07;;
55312;SDS011;46892;45.668;11.756;2022-08-30T05:30:33;9.00;;;6.97;;
55312;SDS011;46892;45.668;11.756;2022-08-30T05:33:00;9.00;;;7.00;;
55312;SDS011;46892;45.668;11.756;2022-08-30T05:35:26;10.53;;;7.93;;
55312;SDS011;46892;45.668;11.756;2022-08-30T05:37:53;12.40;;;7.97;;
55312;SDS011;46892;45.668;11.756;2022-08-30T05:40:19;9.30;;;7.80;;
55312;SDS011;46892;45.668;11.756;2022-08-30T05:42:45;9.83;;;8.00;;
55312;SDS011;46892;45.668;11.756;2022-08-30T05:45:11;11.93;;;7.83;;
55312;SDS011;46892;45.668;11.756;2022-08-30T05:47:38;11.73;;;7.80;;
55312;SDS011;46892;45.668;11.756;2022-08-30T05:50:04;11.00;;;8.00;;
55312;SDS011;46892;45.668;11.756;2022-08-30T05:52:36;11.20;;;7.90;;
55312;SDS011;46892;45.668;11.756;2022-08-30T05:57:32;9.90;;;7.83;;
55312;SDS011;46892;45.668;11.756;2022-08-30T06:00:06;9.80;;;7.33;;
55312;SDS011;46892;45.668;11.756;2022-08-30T06:02:34;7.47;;;6.30;;
55312;SDS011;46892;45.668;11.756;2022-08-30T06:05:00;8.87;;;6.40;;
55312;SDS011;46892;45.668;11.756;2022-08-30T06:07:28;5.97;;;4.47;;
55312;SDS011;46892;45.668;11.756;2022-08-30T06:09:54;11.97;;;4.03;;
55312;SDS011;46892;45.668;11.756;2022-08-30T06:12:19;4.40;;;3.43;;
55312;SDS011;46892;45.668;11.756;2022-08-30T06:14:45;5.67;;;4.17;;
55312;SDS011;46892;45.668;11.756;2022-08-30T06:17:11;6.63;;;3.90;;
55312;SDS011;46892;45.668;11.756;2022-08-30T06:19:37;4.80;;;3.70;;
55312;SDS011;46892;45.668;11.756;2022-08-30T06:22:03;7.10;;;4.50;;
55312;SDS011;46892;45.668;11.756;2022-08-30T06:24:28;5.63;;;4.20;;
55312;SDS011;46892;45.668;11.756;2022-08-30T06:26:54;6.03;;;4.40;;
55312;SDS011;46892;45.668;11.756;2022-08-30T06:29:20;7.77;;;5.87;;
55312;SDS011;46892;45.668;11.756;2022-08-30T06:31:46;8.37;;;6.10;;
55312;SDS011;46892;45.668;11.756;2022-08-30T06:34:13;9.50;;;7.13;;
55312;SDS011;46892;45.668;11.756;2022-08-30T06:36:39;10.03;;;8.07;;
55312;SDS011;46892;45.668;11.756;2022-08-30T06:39:06;11.20;;;8.70;;
55312;SDS011;46892;45.668;11.756;2022-08-30T06:41:33;9.17;;;8.03;;
55312;SDS011;46892;45.668;11.756;2022-08-30T06:44:00;11.50;;;8.03;;
55312;SDS011;46892;45.668;11.756;2022-08-30T06:46:32;11.63;;;9.10;;
55312;SDS011;46892;45.668;11.756;2022-08-30T06:48:59;9.77;;;8.23;;
55312;SDS011;46892;45.668;11.756;2022-08-30T06:51:30;12.20;;;8.63;;
55312;SDS011;46892;45.668;11.756;2022-08-30T06:53:58;12.70;;;8.57;;
55312;SDS011;46892;45.668;11.756;2022-08-30T06:56:24;10.40;;;8.03;;
55312;SDS011;46892;45.668;11.756;2022-08-30T06:58:51;10.77;;;7.90;;
55312;SDS011;46892;45.668;11.756;2022-08-30T07:01:18;11.53;;;7.23;;
55312;SDS011;46892;45.668;11.756;2022-08-30T07:03:49;8.53;;;6.23;;
55312;SDS011;46892;45.668;11.756;2022-08-30T07:06:15;10.37;;;6.07;;
55312;SDS011;46892;45.668;11.756;2022-08-30T07:08:43;7.17;;;6.13;;
55312;SDS011;46892;45.668;11.756;2022-08-30T07:11:09;7.83;;;5.40;;
55312;SDS011;46892;45.668;11.756;2022-08-30T07:13:35;6.73;;;5.00;;
55312;SDS011;46892;45.668;11.756;2022-08-30T07:16:11;7.87;;;5.73;;
55312;SDS011;46892;45.668;11.756;2022-08-30T07:18:37;7.00;;;4.87;;
55312;SDS011;46892;45.668;11.756;2022-08-30T07:21:19;6.05;;;4.00;;
55312;SDS011;46892;45.668;11.756;2022-08-30T07:23:48;5.93;;;3.85;;
55312;SDS011;46892;45.668;11.756;2022-08-30T07:26:16;9.43;;;4.00;;
55312;SDS011;46892;45.668;11.756;2022-08-30T07:28:44;5.60;;;4.15;;
55312;SDS011;46892;45.668;11.756;2022-08-30T07:31:11;6.97;;;4.55;;
55312;SDS011;46892;45.668;11.756;2022-08-30T07:33:37;8.10;;;4.00;;
55312;SDS011;46892;45.668;11.756;2022-08-30T07:36:04;7.35;;;3.92;;
55312;SDS011;46892;45.668;11.756;2022-08-30T07:38:31;3.85;;;2.95;;
55312;SDS011;46892;45.668;11.756;2022-08-30T07:40:57;5.30;;;3.30;;
55312;SDS011;46892;45.668;11.756;2022-08-30T07:43:26;5.35;;;3.65;;
55312;SDS011;46892;45.668;11.756;2022-08-30T07:45:52;7.40;;;3.35;;
55312;SDS011;46892;45.668;11.756;2022-08-30T07:48:18;4.95;;;3.70;;
55312;SDS011;46892;45.668;11.756;2022-08-30T07:50:44;4.47;;;3.40;;
55312;SDS011;46892;45.668;11.756;2022-08-30T07:53:11;4.07;;;3.08;;
55312;SDS011;46892;45.668;11.756;2022-08-30T07:55:37;5.68;;;3.20;;
55312;SDS011;46892;45.668;11.756;2022-08-30T07:58:02;3.15;;;2.78;;
55312;SDS011;46892;45.668;11.756;2022-08-30T08:00:28;3.78;;;2.58;;
55312;SDS011;46892;45.668;11.756;2022-08-30T08:02:54;4.18;;;2.22;;
55312;SDS011;46892;45.668;11.756;2022-08-30T08:05:19;2.67;;;2.17;;
55312;SDS011;46892;45.668;11.756;2022-08-30T08:07:45;2.78;;;2.22;;
55312;SDS011;46892;45.668;11.756;2022-08-30T08:10:11;3.17;;;2.10;;
55312;SDS011;46892;45.668;11.756;2022-08-30T08:12:37;2.90;;;2.20;;
55312;SDS011;46892;45.668;11.756;2022-08-30T08:15:04;2.92;;;2.20;;
55312;SDS011;46892;45.668;11.756;2022-08-30T08:17:30;3.28;;;2.40;;
55312;SDS011;46892;45.668;11.756;2022-08-30T08:19:56;3.67;;;2.10;;
55312;SDS011;46892;45.668;11.756;2022-08-30T08:22:22;4.93;;;2.72;;
55312;SDS011;46892;45.668;11.756;2022-08-30T08:24:48;4.15;;;2.45;;
55312;SDS011;46892;45.668;11.756;2022-08-30T08:27:14;5.32;;;2.80;;
55312;SDS011;46892;45.668;11.756;2022-08-30T08:29:39;4.40;;;2.63;;
55312;SDS011;46892;45.668;11.756;2022-08-30T08:32:05;3.75;;;2.10;;
55312;SDS011;46892;45.668;11.756;2022-08-30T08:34:30;4.03;;;2.83;;
55312;SDS011;46892;45.668;11.756;2022-08-30T08:36:56;3.15;;;2.50;;
55312;SDS011;46892;45.668;11.756;2022-08-30T08:39:22;2.90;;;2.60;;
55312;SDS011;46892;45.668;11.756;2022-08-30T08:41:49;5.10;;;2.75;;
55312;SDS011;46892;45.668;11.756;2022-08-30T08:47:30;3.90;;;3.00;;
55312;SDS011;46892;45.668;11.756;2022-08-30T08:50:27;5.63;;;3.13;;
55312;SDS011;46892;45.668;11.756;2022-08-30T08:53:07;4.88;;;3.05;;
55312;SDS011;46892;45.668;11.756;2022-08-30T08:55:59;4.47;;;2.72;;
55312;SDS011;46892;45.668;11.756;2022-08-30T08:58:29;5.15;;;2.55;;
55312;SDS011;46892;45.668;11.756;2022-08-30T09:00:58;4.15;;;2.88;;
55312;SDS011;46892;45.668;11.756;2022-08-30T09:03:25;4.40;;;2.95;;
55312;SDS011;46892;45.668;11.756;2022-08-30T09:05:53;8.20;;;3.15;;
55312;SDS011;46892;45.668;11.756;2022-08-30T09:08:20;4.47;;;3.03;;
55312;SDS011;46892;45.668;11.756;2022-08-30T09:13:26;6.35;;;3.13;;
55312;SDS011;46892;45.668;11.756;2022-08-30T09:15:53;3.95;;;3.20;;
55312;SDS011;46892;45.668;11.756;2022-08-30T09:18:26;3.78;;;2.75;;
55312;SDS011;46892;45.668;11.756;2022-08-30T09:21:08;4.05;;;2.55;;
55312;SDS011;46892;45.668;11.756;2022-08-30T09:23:35;5.25;;;2.60;;
55312;SDS011;46892;45.668;11.756;2022-08-30T09:26:10;4.90;;;3.15;;
55312;SDS011;46892;45.668;11.756;2022-08-30T09:28:44;3.75;;;2.90;;
55312;SDS011;46892;45.668;11.756;2022-08-30T09:34:02;4.05;;;2.88;;
55312;SDS011;46892;45.668;11.756;2022-08-30T09:36:34;3.88;;;2.75;;
55312;SDS011;46892;45.668;11.756;2022-08-30T09:39:12;4.15;;;2.30;;
55312;SDS011;46892;45.668;11.756;2022-08-30T09:41:42;3.70;;;2.70;;
55312;SDS011;46892;45.668;11.756;2022-08-30T09:44:16;3.40;;;2.15;;
55312;SDS011;46892;45.668;11.756;2022-08-30T09:46:57;7.05;;;2.70;;
55312;SDS011;46892;45.668;11.756;2022-08-30T09:49:42;3.78;;;2.50;;
55312;SDS011;46892;45.668;11.756;2022-08-30T09:55:40;5.03;;;2.30;;
55312;SDS011;46892;45.668;11.756;2022-08-30T09:58:17;3.33;;;2.47;;
55312;SDS011;46892;45.668;11.756;2022-08-30T10:00:56;3.83;;;2.55;;
55312;SDS011;46892;45.668;11.756;2022-08-30T10:03:34;4.03;;;2.40;;
55312;SDS011;46892;45.668;11.756;2022-08-30T10:06:14;4.50;;;2.70;;
55312;SDS011;46892;45.668;11.756;2022-08-30T10:26:05;3.95;;;3.08;;
55312;SDS011;46892;45.668;11.756;2022-08-30T10:29:28;3.33;;;2.65;;
55312;SDS011;46892;45.668;11.756;2022-08-30T10:34:28;3.45;;;2.63;;
55312;SDS011;46892;45.668;11.756;2022-08-30T10:37:03;3.13;;;2.20;;
55312;SDS011;46892;45.668;11.756;2022-08-30T10:39:39;3.38;;;2.25;;
55312;SDS011;46892;45.668;11.756;2022-08-30T10:42:23;4.65;;;2.80;;
55312;SDS011;46892;45.668;11.756;2022-08-30T10:45:03;4.07;;;2.70;;
55312;SDS011;46892;45.668;11.756;2022-08-30T10:50:13;5.43;;;2.95;;
55312;SDS011;46892;45.668;11.756;2022-08-30T10:58:29;4.88;;;2.70;;
55312;SDS011;46892;45.668;11.756;2022-08-30T11:14:24;3.22;;;2.60;;
55312;SDS011;46892;45.668;11.756;2022-08-30T11:16:51;3.30;;;2.30;;
55312;SDS011;46892;45.668;11.756;2022-08-30T11:19:23;4.32;;;2.50;;
55312;SDS011;46892;45.668;11.756;2022-08-30T11:22:12;4.38;;;2.60;;
55312;SDS011;46892;45.668;11.756;2022-08-30T11:27:45;4.38;;;2.85;;
55312;SDS011;46892;45.668;11.756;2022-08-30T11:35:41;3.88;;;2.70;;
55312;SDS011;46892;45.668;11.756;2022-08-30T11:48:53;4.07;;;3.10;;
55312;SDS011;46892;45.668;11.756;2022-08-30T12:00:10;6.03;;;4.00;;
55312;SDS011;46892;45.668;11.756;2022-08-30T12:02:54;4.32;;;3.30;;
55312;SDS011;46892;45.668;11.756;2022-08-30T12:24:04;2.95;;;2.33;;
55312;SDS011;46892;45.668;11.756;2022-08-30T12:26:38;3.88;;;2.67;;
55312;SDS011;46892;45.668;11.756;2022-08-30T12:34:21;3.45;;;2.10;;
55312;SDS011;46892;45.668;11.756;2022-08-30T12:37:06;2.85;;;2.15;;
55312;SDS011;46892;45.668;11.756;2022-08-30T12:39:36;2.42;;;1.80;;
55312;SDS011;46892;45.668;11.756;2022-08-30T12:42:18;4.88;;;2.20;;
55312;SDS011;46892;45.668;11.756;2022-08-30T12:44:52;2.30;;;2.10;;
55312;SDS011;46892;45.668;11.756;2022-08-30T12:47:22;3.80;;;2.42;;
55312;SDS011;46892;45.668;11.756;2022-08-30T12:49:53;4.47;;;2.35;;
55312;SDS011;46892;45.668;11.756;2022-08-30T12:52:27;3.25;;;2.20;;
55312;SDS011;46892;45.668;11.756;2022-08-30T12:55:12;3.95;;;2.20;;
55312;SDS011;46892;45.668;11.756;2022-08-30T13:00:31;3.67;;;2.40;;
55312;SDS011;46892;45.668;11.756;2022-08-30T13:03:00;4.40;;;2.33;;
55312;SDS011;46892;45.668;11.756;2022-08-30T13:05:34;2.63;;;2.20;;
55312;SDS011;46892;45.668;11.756;2022-08-30T13:08:10;3.22;;;2.60;;
55312;SDS011;46892;45.668;11.756;2022-08-30T13:10:49;3.05;;;2.28;;
55312;SDS011;46892;45.668;11.756;2022-08-30T13:18:50;3.58;;;2.10;;
55312;SDS011;46892;45.668;11.756;2022-08-30T13:23:49;5.22;;;2.58;;
55312;SDS011;46892;45.668;11.756;2022-08-30T13:26:16;3.38;;;2.58;;
55312;SDS011;46892;45.668;11.756;2022-08-30T13:28:47;3.58;;;2.47;;
55312;SDS011;46892;45.668;11.756;2022-08-30T13:31:17;3.45;;;2.58;;
55312;SDS011;46892;45.668;11.756;2022-08-30T13:33:43;3.50;;;2.85;;
55312;SDS011;46892;45.668;11.756;2022-08-30T13:36:10;3.70;;;2.40;;
55312;SDS011;46892;45.668;11.756;2022-08-30T13:38:39;4.22;;;2.45;;
55312;SDS011;46892;45.668;11.756;2022-08-30T13:41:06;3.90;;;2.30;;
55312;SDS011;46892;45.668;11.756;2022-08-30T13:43:32;4.32;;;2.63;;
55312;SDS011;46892;45.668;11.756;2022-08-30T13:45:57;5.05;;;2.70;;
55312;SDS011;46892;45.668;11.756;2022-08-30T13:48:23;3.92;;;2.97;;
55312;SDS011;46892;45.668;11.756;2022-08-30T13:50:49;5.15;;;2.78;;
55312;SDS011;46892;45.668;11.756;2022-08-30T13:53:15;3.40;;;2.63;;
55312;SDS011;46892;45.668;11.756;2022-08-30T13:55:41;5.30;;;3.05;;
55312;SDS011;46892;45.668;11.756;2022-08-30T13:58:08;5.65;;;3.10;;
55312;SDS011;46892;45.668;11.756;2022-08-30T14:00:33;4.78;;;2.80;;
55312;SDS011;46892;45.668;11.756;2022-08-30T14:03:00;4.47;;;3.10;;
55312;SDS011;46892;45.668;11.756;2022-08-30T14:05:27;4.75;;;3.30;;
55312;SDS011;46892;45.668;11.756;2022-08-30T14:07:55;5.28;;;3.38;;
55312;SDS011;46892;45.668;11.756;2022-08-30T14:10:22;4.45;;;2.85;;
55312;SDS011;46892;45.668;11.756;2022-08-30T14:12:50;4.97;;;3.08;;
55312;SDS011;46892;45.668;11.756;2022-08-30T14:15:16;4.55;;;2.90;;
55312;SDS011;46892;45.668;11.756;2022-08-30T14:17:42;3.60;;;3.10;;
55312;SDS011;46892;45.668;11.756;2022-08-30T14:20:08;4.25;;;2.97;;
55312;SDS011;46892;45.668;11.756;2022-08-30T14:22:34;4.85;;;3.38;;
55312;SDS011;46892;45.668;11.756;2022-08-30T14:24:59;4.75;;;3.20;;
55312;SDS011;46892;45.668;11.756;2022-08-30T14:27:28;5.20;;;3.17;;
55312;SDS011;46892;45.668;11.756;2022-08-30T14:29:54;3.95;;;3.15;;
55312;SDS011;46892;45.668;11.756;2022-08-30T14:32:20;5.72;;;2.97;;
55312;SDS011;46892;45.668;11.756;2022-08-30T14:34:46;4.05;;;2.80;;
55312;SDS011;46892;45.668;11.756;2022-08-30T14:37:11;5.32;;;2.83;;
55312;SDS011;46892;45.668;11.756;2022-08-30T14:39:37;5.35;;;3.10;;
55312;SDS011;46892;45.668;11.756;2022-08-30T14:42:03;4.13;;;3.28;;
55312;SDS011;46892;45.668;11.756;2022-08-30T14:44:30;7.90;;;3.00;;
55312;SDS011;46892;45.668;11.756;2022-08-30T14:46:55;4.68;;;3.17;;
55312;SDS011;46892;45.668;11.756;2022-08-30T14:49:21;4.65;;;3.22;;
55312;SDS011;46892;45.668;11.756;2022-08-30T14:51:48;4.00;;;3.20;;
55312;SDS011;46892;45.668;11.756;2022-08-30T14:54:15;3.20;;;2.75;;
55312;SDS011;46892;45.668;11.756;2022-08-30T14:56:43;3.67;;;2.90;;
55312;SDS011;46892;45.668;11.756;2022-08-30T14:59:09;4.68;;;3.10;;
55312;SDS011;46892;45.668;11.756;2022-08-30T15:01:36;6.13;;;3.35;;
55312;SDS011;46892;45.668;11.756;2022-08-30T15:04:03;5.55;;;3.17;;
55312;SDS011;46892;45.668;11.756;2022-08-30T15:06:30;4.82;;;3.38;;
55312;SDS011;46892;45.668;11.756;2022-08-30T15:08:56;4.40;;;3.08;;
55312;SDS011;46892;45.668;11.756;2022-08-30T15:11:23;6.88;;;3.78;;
55312;SDS011;46892;45.668;11.756;2022-08-30T15:13:50;6.93;;;4.30;;
55312;SDS011;46892;45.668;11.756;2022-08-30T15:16:21;4.95;;;2.97;;
55312;SDS011;46892;45.668;11.756;2022-08-30T15:18:49;4.85;;;2.95;;
55312;SDS011;46892;45.668;11.756;2022-08-30T15:21:25;5.57;;;3.35;;
55312;SDS011;46892;45.668;11.756;2022-08-30T15:23:54;5.75;;;3.20;;
55312;SDS011;46892;45.668;11.756;2022-08-30T15:26:21;4.07;;;2.90;;
55312;SDS011;46892;45.668;11.756;2022-08-30T15:28:47;3.78;;;2.97;;
55312;SDS011;46892;45.668;11.756;2022-08-30T15:31:13;5.40;;;3.10;;
55312;SDS011;46892;45.668;11.756;2022-08-30T15:33:39;5.95;;;3.30;;
55312;SDS011;46892;45.668;11.756;2022-08-30T15:36:05;5.72;;;2.90;;
55312;SDS011;46892;45.668;11.756;2022-08-30T15:38:32;4.85;;;3.00;;
55312;SDS011;46892;45.668;11.756;2022-08-30T15:41:00;5.53;;;3.38;;
55312;SDS011;46892;45.668;11.756;2022-08-30T15:43:29;6.22;;;3.45;;
55312;SDS011;46892;45.668;11.756;2022-08-30T15:45:55;7.65;;;3.20;;
55312;SDS011;46892;45.668;11.756;2022-08-30T15:48:21;5.10;;;3.65;;
55312;SDS011;46892;45.668;11.756;2022-08-30T15:50:53;3.70;;;3.08;;
55312;SDS011;46892;45.668;11.756;2022-08-30T15:53:22;4.53;;;3.08;;
55312;SDS011;46892;45.668;11.756;2022-08-30T15:55:47;5.03;;;3.03;;
55312;SDS011;46892;45.668;11.756;2022-08-30T15:58:13;4.57;;;3.00;;
55312;SDS011;46892;45.668;11.756;2022-08-30T16:00:38;3.55;;;2.80;;
55312;SDS011;46892;45.668;11.756;2022-08-30T16:03:04;5.20;;;2.90;;
55312;SDS011;46892;45.668;11.756;2022-08-30T16:05:30;4.22;;;2.85;;
55312;SDS011;46892;45.668;11.756;2022-08-30T16:07:56;4.68;;;3.30;;
55312;SDS011;46892;45.668;11.756;2022-08-30T16:10:22;5.15;;;3.10;;
55312;SDS011;46892;45.668;11.756;2022-08-30T16:12:48;4.88;;;2.88;;
55312;SDS011;46892;45.668;11.756;2022-08-30T16:15:13;5.07;;;2.85;;
55312;SDS011;46892;45.668;11.756;2022-08-30T16:17:39;4.63;;;2.88;;
55312;SDS011;46892;45.668;11.756;2022-08-30T16:20:06;4.65;;;2.90;;
55312;SDS011;46892;45.668;11.756;2022-08-30T16:22:32;4.57;;;3.05;;
55312;SDS011;46892;45.668;11.756;2022-08-30T16:24:58;3.83;;;3.10;;
55312;SDS011;46892;45.668;11.756;2022-08-30T16:27:24;5.07;;;3.08;;
55312;SDS011;46892;45.668;11.756;2022-08-30T16:29:49;4.22;;;3.30;;
55312;SDS011;46892;45.668;11.756;2022-08-30T16:32:15;3.65;;;3.30;;
55312;SDS011;46892;45.668;11.756;2022-08-30T16:34:41;4.45;;;3.22;;
55312;SDS011;46892;45.668;11.756;2022-08-30T16:37:06;4.22;;;3.30;;
55312;SDS011;46892;45.668;11.756;2022-08-30T16:39:32;5.28;;;3.40;;
55312;SDS011;46892;45.668;11.756;2022-08-30T16:41:58;4.22;;;3.05;;
55312;SDS011;46892;45.668;11.756;2022-08-30T16:44:25;3.55;;;3.00;;
55312;SDS011;46892;45.668;11.756;2022-08-30T16:46:51;5.50;;;3.38;;
55312;SDS011;46892;45.668;11.756;2022-08-30T16:49:17;6.05;;;4.05;;
55312;SDS011;46892;45.668;11.756;2022-08-30T16:51:43;3.88;;;3.30;;